sensor_id;sensor_type;location;lat;lon;timestamp;pressure;altitude;pressure_sealevel;temperature;humidity
34235;BME280;20500;49.856;20.290;2023-03-26T00:01:34;97967.38;;;7.60;62.19
34235;BME280;20500;49.856;20.290;2023-03-26T00:04:40;97967.89;;;7.54;62.23
34235;BME280;20500;49.856;20.290;2023-03-26T00:07:47;97970.52;;;7.49;62.09
34235;BME280;20500;49.856;20.290;2023-03-26T00:10:53;97971.79;;;7.46;62.13
34235;BME280;20500;49.856;20.290;2023-03-26T00:13:59;97970.96;;;7.44;62.18
34235;BME280;20500;49.856;20.290;2023-03-26T00:17:06;97971.58;;;7.40;62.20
34235;BME280;20500;49.856;20.290;2023-03-26T00:20:12;97976.11;;;7.36;62.20
34235;BME280;20500;49.856;20.290;2023-03-26T00:23:19;97976.48;;;7.32;62.18
34235;BME280;20500;49.856;20.290;2023-03-26T00:26:24;97977.61;;;7.29;62.35
34235;BME280;20500;49.856;20.290;2023-03-26T00:29:30;97977.90;;;7.25;62.43
34235;BME280;20500;49.856;20.290;2023-03-26T00:32:39;97980.90;;;7.26;62.30
34235;BME280;20500;49.856;20.290;2023-03-26T00:35:45;97983.84;;;7.28;62.34
34235;BME280;20500;49.856;20.290;2023-03-26T00:38:51;97985.13;;;7.34;62.33
34235;BME280;20500;49.856;20.290;2023-03-26T00:41:56;97978.73;;;7.39;62.21
34235;BME280;20500;49.856;20.290;2023-03-26T00:45:02;97972.83;;;7.43;62.35
34235;BME280;20500;49.856;20.290;2023-03-26T00:48:08;97971.11;;;7.45;62.23
34235;BME280;20500;49.856;20.290;2023-03-26T00:51:15;97966.99;;;7.47;62.11
34235;BME280;20500;49.856;20.290;2023-03-26T00:54:21;97963.95;;;7.48;62.18
34235;BME280;20500;49.856;20.290;2023-03-26T00:57:27;97963.70;;;7.48;62.12
34235;BME280;20500;49.856;20.290;2023-03-26T01:00:44;97961.78;;;7.48;62.13
34235;BME280;20500;49.856;20.290;2023-03-26T01:03:52;97964.45;;;7.48;62.16
34235;BME280;20500;49.856;20.290;2023-03-26T01:07:14;97968.75;;;7.50;62.07
34235;BME280;20500;49.856;20.290;2023-03-26T01:10:23;97957.05;;;7.51;62.20
34235;BME280;20500;49.856;20.290;2023-03-26T01:13:31;97954.75;;;7.51;62.22
34235;BME280;20500;49.856;20.290;2023-03-26T01:16:40;97952.08;;;7.52;62.23
34235;BME280;20500;49.856;20.290;2023-03-26T01:19:53;97952.63;;;7.53;62.29
34235;BME280;20500;49.856;20.290;2023-03-26T01:23:05;97947.38;;;7.53;62.29
34235;BME280;20500;49.856;20.290;2023-03-26T01:26:18;97944.61;;;7.52;62.33
34235;BME280;20500;49.856;20.290;2023-03-26T01:29:31;97936.65;;;7.48;62.10
34235;BME280;20500;49.856;20.290;2023-03-26T01:32:50;97937.02;;;7.44;62.22
34235;BME280;20500;49.856;20.290;2023-03-26T01:36:06;97938.48;;;7.41;62.19
34235;BME280;20500;49.856;20.290;2023-03-26T01:39:19;97939.20;;;7.39;62.09
34235;BME280;20500;49.856;20.290;2023-03-26T01:42:35;97939.11;;;7.37;62.05
34235;BME280;20500;49.856;20.290;2023-03-26T01:45:45;97933.77;;;7.35;62.18
34235;BME280;20500;49.856;20.290;2023-03-26T01:48:52;97930.48;;;7.35;62.21
34235;BME280;20500;49.856;20.290;2023-03-26T01:51:58;97931.69;;;7.39;62.16
34235;BME280;20500;49.856;20.290;2023-03-26T01:55:06;97933.25;;;7.44;62.15
34235;BME280;20500;49.856;20.290;2023-03-26T01:58:19;97930.36;;;7.48;62.26
34235;BME280;20500;49.856;20.290;2023-03-26T02:01:28;97932.24;;;7.56;62.37
34235;BME280;20500;49.856;20.290;2023-03-26T02:04:39;97937.04;;;7.64;62.16
34235;BME280;20500;49.856;20.290;2023-03-26T02:07:50;97948.02;;;7.70;62.16
34235;BME280;20500;49.856;20.290;2023-03-26T02:11:00;97963.37;;;7.74;62.17
34235;BME280;20500;49.856;20.290;2023-03-26T02:14:08;97971.14;;;7.76;62.49
34235;BME280;20500;49.856;20.290;2023-03-26T02:17:15;97971.25;;;7.74;62.68
34235;BME280;20500;49.856;20.290;2023-03-26T02:20:22;97973.96;;;7.68;62.90
34235;BME280;20500;49.856;20.290;2023-03-26T02:23:29;97967.73;;;7.63;63.06
34235;BME280;20500;49.856;20.290;2023-03-26T02:26:39;97957.02;;;7.54;63.03
34235;BME280;20500;49.856;20.290;2023-03-26T02:29:45;97949.75;;;7.50;63.24
34235;BME280;20500;49.856;20.290;2023-03-26T02:32:53;97941.40;;;7.48;63.36
34235;BME280;20500;49.856;20.290;2023-03-26T02:36:04;97935.69;;;7.44;63.38
34235;BME280;20500;49.856;20.290;2023-03-26T02:39:12;97941.34;;;7.44;63.42
34235;BME280;20500;49.856;20.290;2023-03-26T02:42:18;97941.05;;;7.43;63.64
34235;BME280;20500;49.856;20.290;2023-03-26T02:45:23;97945.33;;;7.39;63.74
34235;BME280;20500;49.856;20.290;2023-03-26T02:48:30;97945.13;;;7.37;63.87
34235;BME280;20500;49.856;20.290;2023-03-26T02:51:38;97943.46;;;7.32;63.95
34235;BME280;20500;49.856;20.290;2023-03-26T02:54:44;97944.60;;;7.27;63.92
34235;BME280;20500;49.856;20.290;2023-03-26T02:57:50;97937.98;;;7.27;64.23
34235;BME280;20500;49.856;20.290;2023-03-26T03:00:56;97940.92;;;7.29;64.32
34235;BME280;20500;49.856;20.290;2023-03-26T03:04:04;97940.84;;;7.30;64.37
34235;BME280;20500;49.856;20.290;2023-03-26T03:07:11;97941.73;;;7.30;64.49
34235;BME280;20500;49.856;20.290;2023-03-26T03:10:19;97934.58;;;7.28;64.51
34235;BME280;20500;49.856;20.290;2023-03-26T03:13:25;97929.94;;;7.26;64.49
34235;BME280;20500;49.856;20.290;2023-03-26T03:16:32;97927.91;;;7.25;64.58
34235;BME280;20500;49.856;20.290;2023-03-26T03:19:37;97926.44;;;7.20;64.52
34235;BME280;20500;49.856;20.290;2023-03-26T03:22:44;97928.84;;;7.14;64.82
34235;BME280;20500;49.856;20.290;2023-03-26T03:25:48;97932.24;;;7.06;64.87
34235;BME280;20500;49.856;20.290;2023-03-26T03:28:57;97932.92;;;7.01;65.04
34235;BME280;20500;49.856;20.290;2023-03-26T03:32:01;97928.32;;;6.96;65.10
34235;BME280;20500;49.856;20.290;2023-03-26T03:35:09;97922.32;;;6.92;65.23
34235;BME280;20500;49.856;20.290;2023-03-26T03:38:15;97918.90;;;6.92;65.28
34235;BME280;20500;49.856;20.290;2023-03-26T03:41:21;97924.36;;;6.93;65.29
34235;BME280;20500;49.856;20.290;2023-03-26T03:44:26;97924.05;;;6.89;65.29
34235;BME280;20500;49.856;20.290;2023-03-26T03:47:32;97924.12;;;6.81;65.35
34235;BME280;20500;49.856;20.290;2023-03-26T03:50:38;97925.66;;;6.76;65.45
34235;BME280;20500;49.856;20.290;2023-03-26T03:53:45;97918.33;;;6.70;65.51
34235;BME280;20500;49.856;20.290;2023-03-26T03:56:52;97918.82;;;6.69;65.69
34235;BME280;20500;49.856;20.290;2023-03-26T03:59:58;97920.20;;;6.69;65.63
34235;BME280;20500;49.856;20.290;2023-03-26T04:03:04;97912.48;;;6.67;65.62
34235;BME280;20500;49.856;20.290;2023-03-26T04:06:09;97908.47;;;6.69;65.67
34235;BME280;20500;49.856;20.290;2023-03-26T04:09:15;97909.68;;;6.72;65.74
34235;BME280;20500;49.856;20.290;2023-03-26T04:12:21;97912.98;;;6.76;65.92
34235;BME280;20500;49.856;20.290;2023-03-26T04:15:27;97918.73;;;6.78;65.94
34235;BME280;20500;49.856;20.290;2023-03-26T04:18:33;97916.83;;;6.80;65.86
34235;BME280;20500;49.856;20.290;2023-03-26T04:21:40;97910.04;;;6.83;65.99
34235;BME280;20500;49.856;20.290;2023-03-26T04:24:46;97911.83;;;6.86;65.95
34235;BME280;20500;49.856;20.290;2023-03-26T04:27:53;97909.52;;;6.90;65.98
34235;BME280;20500;49.856;20.290;2023-03-26T04:31:03;97908.80;;;6.93;65.97
34235;BME280;20500;49.856;20.290;2023-03-26T04:34:13;97901.61;;;6.94;65.79
34235;BME280;20500;49.856;20.290;2023-03-26T04:37:27;97897.68;;;6.97;65.88
34235;BME280;20500;49.856;20.290;2023-03-26T04:40:36;97898.70;;;7.01;65.86
34235;BME280;20500;49.856;20.290;2023-03-26T04:43:42;97901.78;;;7.03;65.92
34235;BME280;20500;49.856;20.290;2023-03-26T04:46:54;97902.73;;;7.06;65.95
34235;BME280;20500;49.856;20.290;2023-03-26T04:50:00;97904.74;;;7.10;65.85
34235;BME280;20500;49.856;20.290;2023-03-26T04:53:05;97903.20;;;7.14;65.85
34235;BME280;20500;49.856;20.290;2023-03-26T04:56:18;97902.65;;;7.17;65.94
34235;BME280;20500;49.856;20.290;2023-03-26T04:59:32;97902.50;;;7.21;65.96
34235;BME280;20500;49.856;20.290;2023-03-26T05:02:39;97902.60;;;7.26;65.79
34235;BME280;20500;49.856;20.290;2023-03-26T05:05:46;97904.71;;;7.32;65.81
34235;BME280;20500;49.856;20.290;2023-03-26T05:08:53;97905.27;;;7.37;65.75
34235;BME280;20500;49.856;20.290;2023-03-26T05:11:59;97897.38;;;7.41;65.79
34235;BME280;20500;49.856;20.290;2023-03-26T05:15:07;97900.77;;;7.44;65.69
34235;BME280;20500;49.856;20.290;2023-03-26T05:18:13;97898.55;;;7.45;65.80
34235;BME280;20500;49.856;20.290;2023-03-26T05:21:19;97902.52;;;7.47;65.69
34235;BME280;20500;49.856;20.290;2023-03-26T05:24:25;97903.54;;;7.48;65.69
34235;BME280;20500;49.856;20.290;2023-03-26T05:27:33;97900.70;;;7.48;65.54
34235;BME280;20500;49.856;20.290;2023-03-26T05:30:40;97903.59;;;7.50;65.54
34235;BME280;20500;49.856;20.290;2023-03-26T05:33:48;97905.22;;;7.54;65.57
34235;BME280;20500;49.856;20.290;2023-03-26T05:36:53;97910.77;;;7.62;65.52
34235;BME280;20500;49.856;20.290;2023-03-26T05:40:00;97911.40;;;7.70;65.50
34235;BME280;20500;49.856;20.290;2023-03-26T05:43:07;97908.59;;;7.81;65.63
34235;BME280;20500;49.856;20.290;2023-03-26T05:46:14;97903.57;;;7.92;65.59
34235;BME280;20500;49.856;20.290;2023-03-26T05:49:20;97904.61;;;8.00;65.39
34235;BME280;20500;49.856;20.290;2023-03-26T05:52:26;97905.27;;;8.08;65.40
34235;BME280;20500;49.856;20.290;2023-03-26T05:55:30;97901.20;;;8.15;65.23
34235;BME280;20500;49.856;20.290;2023-03-26T05:58:37;97903.05;;;8.21;65.27
34235;BME280;20500;49.856;20.290;2023-03-26T06:01:43;97907.42;;;8.29;65.30
34235;BME280;20500;49.856;20.290;2023-03-26T06:04:49;97908.64;;;8.40;65.36
34235;BME280;20500;49.856;20.290;2023-03-26T06:07:56;97908.55;;;8.48;65.21
34235;BME280;20500;49.856;20.290;2023-03-26T06:11:04;97906.13;;;8.54;65.09
34235;BME280;20500;49.856;20.290;2023-03-26T06:14:11;97904.36;;;8.57;64.97
34235;BME280;20500;49.856;20.290;2023-03-26T06:17:17;97901.20;;;8.59;64.91
34235;BME280;20500;49.856;20.290;2023-03-26T06:20:23;97904.16;;;8.60;64.83
34235;BME280;20500;49.856;20.290;2023-03-26T06:23:29;97906.20;;;8.65;64.76
34235;BME280;20500;49.856;20.290;2023-03-26T06:26:33;97905.93;;;8.73;64.87
34235;BME280;20500;49.856;20.290;2023-03-26T06:29:39;97903.38;;;8.85;64.62
34235;BME280;20500;49.856;20.290;2023-03-26T06:32:45;97900.51;;;8.95;64.69
34235;BME280;20500;49.856;20.290;2023-03-26T06:35:51;97899.02;;;9.00;64.50
34235;BME280;20500;49.856;20.290;2023-03-26T06:38:57;97894.53;;;9.03;64.34
34235;BME280;20500;49.856;20.290;2023-03-26T06:42:10;97892.01;;;9.07;64.34
34235;BME280;20500;49.856;20.290;2023-03-26T06:45:17;97897.95;;;9.11;64.36
34235;BME280;20500;49.856;20.290;2023-03-26T06:48:21;97902.44;;;9.14;64.29
34235;BME280;20500;49.856;20.290;2023-03-26T06:51:27;97907.02;;;9.17;64.00
34235;BME280;20500;49.856;20.290;2023-03-26T06:54:33;97906.61;;;9.22;64.07
34235;BME280;20500;49.856;20.290;2023-03-26T06:57:37;97906.31;;;9.30;64.03
34235;BME280;20500;49.856;20.290;2023-03-26T07:00:43;97908.88;;;9.44;64.05
34235;BME280;20500;49.856;20.290;2023-03-26T07:03:49;97910.45;;;9.63;63.96
34235;BME280;20500;49.856;20.290;2023-03-26T07:06:55;97910.58;;;9.81;63.78
34235;BME280;20500;49.856;20.290;2023-03-26T07:10:01;97908.98;;;9.96;63.51
34235;BME280;20500;49.856;20.290;2023-03-26T07:13:07;97904.23;;;10.08;63.57
34235;BME280;20500;49.856;20.290;2023-03-26T07:16:13;97903.48;;;10.23;63.42
34235;BME280;20500;49.856;20.290;2023-03-26T07:19:20;97906.82;;;10.37;63.29
34235;BME280;20500;49.856;20.290;2023-03-26T07:22:27;97904.97;;;10.55;63.00
34235;BME280;20500;49.856;20.290;2023-03-26T07:25:34;97896.94;;;10.62;62.98
34235;BME280;20500;49.856;20.290;2023-03-26T07:28:44;97903.42;;;10.60;62.83
34235;BME280;20500;49.856;20.290;2023-03-26T07:32:15;97906.15;;;10.57;62.58
34235;BME280;20500;49.856;20.290;2023-03-26T07:35:28;97909.33;;;10.48;62.46
34235;BME280;20500;49.856;20.290;2023-03-26T07:38:46;97911.47;;;10.39;62.34
34235;BME280;20500;49.856;20.290;2023-03-26T07:42:00;97911.27;;;10.30;62.17
34235;BME280;20500;49.856;20.290;2023-03-26T07:45:18;97906.48;;;10.26;62.30
34235;BME280;20500;49.856;20.290;2023-03-26T07:48:28;97904.98;;;10.25;62.20
34235;BME280;20500;49.856;20.290;2023-03-26T07:51:38;97904.36;;;10.29;62.17
34235;BME280;20500;49.856;20.290;2023-03-26T07:54:45;97904.23;;;10.35;62.02
34235;BME280;20500;49.856;20.290;2023-03-26T07:57:59;97900.46;;;10.41;61.90
34235;BME280;20500;49.856;20.290;2023-03-26T08:01:13;97895.05;;;10.47;61.69
34235;BME280;20500;49.856;20.290;2023-03-26T08:04:40;97891.45;;;10.57;61.70
34235;BME280;20500;49.856;20.290;2023-03-26T08:07:59;97890.88;;;10.78;61.58
34235;BME280;20500;49.856;20.290;2023-03-26T08:11:16;97887.69;;;11.00;61.54
34235;BME280;20500;49.856;20.290;2023-03-26T08:14:35;97885.15;;;11.20;61.42
34235;BME280;20500;49.856;20.290;2023-03-26T08:17:48;97888.07;;;11.37;61.30
34235;BME280;20500;49.856;20.290;2023-03-26T08:21:00;97885.84;;;11.54;61.01
34235;BME280;20500;49.856;20.290;2023-03-26T08:24:16;97881.45;;;11.60;60.74
34235;BME280;20500;49.856;20.290;2023-03-26T08:27:38;97876.33;;;11.62;60.57
34235;BME280;20500;49.856;20.290;2023-03-26T08:30:45;97874.55;;;11.58;60.18
34235;BME280;20500;49.856;20.290;2023-03-26T08:33:51;97875.16;;;11.59;60.22
34235;BME280;20500;49.856;20.290;2023-03-26T08:36:57;97878.41;;;11.73;60.20
34235;BME280;20500;49.856;20.290;2023-03-26T08:40:03;97872.41;;;11.73;59.91
34235;BME280;20500;49.856;20.290;2023-03-26T08:43:46;97871.04;;;11.62;59.80
34235;BME280;20500;49.856;20.290;2023-03-26T08:47:30;97871.73;;;11.58;59.46
34235;BME280;20500;49.856;20.290;2023-03-26T08:51:02;97866.73;;;11.59;59.19
34235;BME280;20500;49.856;20.290;2023-03-26T08:54:48;97877.44;;;11.66;58.97
34235;BME280;20500;49.856;20.290;2023-03-26T08:58:37;97869.98;;;11.64;58.62
34235;BME280;20500;49.856;20.290;2023-03-26T09:02:27;97869.00;;;11.60;58.56
34235;BME280;20500;49.856;20.290;2023-03-26T09:06:14;97865.95;;;11.58;58.39
34235;BME280;20500;49.856;20.290;2023-03-26T09:09:50;97861.90;;;11.54;58.26
34235;BME280;20500;49.856;20.290;2023-03-26T09:13:21;97859.05;;;11.52;58.18
34235;BME280;20500;49.856;20.290;2023-03-26T09:17:08;97861.96;;;11.58;58.25
34235;BME280;20500;49.856;20.290;2023-03-26T09:20:46;97863.95;;;11.63;57.95
34235;BME280;20500;49.856;20.290;2023-03-26T09:24:20;97863.02;;;11.65;57.77
34235;BME280;20500;49.856;20.290;2023-03-26T09:27:38;97858.91;;;11.57;57.42
34235;BME280;20500;49.856;20.290;2023-03-26T09:31:15;97858.58;;;11.48;57.37
34235;BME280;20500;49.856;20.290;2023-03-26T09:34:30;97861.69;;;11.38;57.32
34235;BME280;20500;49.856;20.290;2023-03-26T09:37:48;97860.41;;;11.35;57.04
34235;BME280;20500;49.856;20.290;2023-03-26T09:41:03;97865.73;;;11.36;57.19
34235;BME280;20500;49.856;20.290;2023-03-26T09:44:48;97870.70;;;11.30;56.92
34235;BME280;20500;49.856;20.290;2023-03-26T09:48:12;97866.07;;;11.24;57.00
34235;BME280;20500;49.856;20.290;2023-03-26T09:51:46;97861.40;;;11.20;56.85
34235;BME280;20500;49.856;20.290;2023-03-26T09:55:11;97858.16;;;11.19;56.78
34235;BME280;20500;49.856;20.290;2023-03-26T09:58:52;97853.60;;;11.29;56.79
34235;BME280;20500;49.856;20.290;2023-03-26T10:02:15;97852.15;;;11.37;56.74
34235;BME280;20500;49.856;20.290;2023-03-26T10:05:50;97850.49;;;11.37;56.62
34235;BME280;20500;49.856;20.290;2023-03-26T10:09:12;97855.64;;;11.31;56.48
34235;BME280;20500;49.856;20.290;2023-03-26T10:12:32;97851.95;;;11.23;56.41
34235;BME280;20500;49.856;20.290;2023-03-26T10:15:58;97851.60;;;11.15;56.29
34235;BME280;20500;49.856;20.290;2023-03-26T10:19:21;97854.14;;;11.08;56.17
34235;BME280;20500;49.856;20.290;2023-03-26T10:22:42;97848.46;;;11.02;56.03
34235;BME280;20500;49.856;20.290;2023-03-26T10:26:07;97846.92;;;10.99;56.21
34235;BME280;20500;49.856;20.290;2023-03-26T10:29:39;97842.94;;;11.01;56.21
34235;BME280;20500;49.856;20.290;2023-03-26T10:32:55;97835.32;;;11.10;56.03
34235;BME280;20500;49.856;20.290;2023-03-26T10:36:21;97833.46;;;11.25;56.02
34235;BME280;20500;49.856;20.290;2023-03-26T10:43:24;97821.92;;;11.79;55.91
34235;BME280;20500;49.856;20.290;2023-03-26T10:50:24;97823.73;;;11.97;55.60
34235;BME280;20500;49.856;20.290;2023-03-26T10:53:36;97825.52;;;12.00;55.37
34235;BME280;20500;49.856;20.290;2023-03-26T10:56:46;97824.60;;;12.05;55.14
34235;BME280;20500;49.856;20.290;2023-03-26T10:59:54;97819.79;;;12.09;54.97
34235;BME280;20500;49.856;20.290;2023-03-26T11:06:46;97815.85;;;12.36;54.80
34235;BME280;20500;49.856;20.290;2023-03-26T11:10:01;97819.39;;;12.43;54.60
34235;BME280;20500;49.856;20.290;2023-03-26T11:13:15;97817.41;;;12.49;54.53
34235;BME280;20500;49.856;20.290;2023-03-26T11:16:29;97816.10;;;12.51;54.45
34235;BME280;20500;49.856;20.290;2023-03-26T11:19:42;97812.34;;;12.44;54.22
34235;BME280;20500;49.856;20.290;2023-03-26T11:23:05;97812.91;;;12.46;54.21
34235;BME280;20500;49.856;20.290;2023-03-26T11:26:17;97807.34;;;12.56;54.10
34235;BME280;20500;49.856;20.290;2023-03-26T11:29:40;97806.25;;;12.75;54.08
34235;BME280;20500;49.856;20.290;2023-03-26T11:32:50;97798.14;;;12.93;53.72
34235;BME280;20500;49.856;20.290;2023-03-26T11:36:02;97801.44;;;12.99;53.55
34235;BME280;20500;49.856;20.290;2023-03-26T11:39:13;97798.14;;;13.00;53.43
34235;BME280;20500;49.856;20.290;2023-03-26T11:42:25;97792.29;;;13.02;53.28
34235;BME280;20500;49.856;20.290;2023-03-26T11:45:35;97790.80;;;13.07;53.20
34235;BME280;20500;49.856;20.290;2023-03-26T11:48:44;97787.31;;;13.07;52.95
34235;BME280;20500;49.856;20.290;2023-03-26T11:51:52;97780.96;;;13.03;52.96
34235;BME280;20500;49.856;20.290;2023-03-26T11:54:56;97784.05;;;12.99;52.67
34235;BME280;20500;49.856;20.290;2023-03-26T11:58:04;97780.79;;;12.87;52.48
34235;BME280;20500;49.856;20.290;2023-03-26T12:01:17;97775.71;;;12.77;52.64
34235;BME280;20500;49.856;20.290;2023-03-26T12:04:32;97772.07;;;12.64;52.55
34235;BME280;20500;49.856;20.290;2023-03-26T12:07:45;97765.35;;;12.55;52.62
34235;BME280;20500;49.856;20.290;2023-03-26T12:11:03;97768.58;;;12.56;52.64
34235;BME280;20500;49.856;20.290;2023-03-26T12:14:17;97768.23;;;12.60;52.50
34235;BME280;20500;49.856;20.290;2023-03-26T12:17:31;97764.52;;;12.63;52.46
34235;BME280;20500;49.856;20.290;2023-03-26T12:20:37;97759.46;;;12.64;52.30
34235;BME280;20500;49.856;20.290;2023-03-26T12:23:52;97760.58;;;12.62;52.41
34235;BME280;20500;49.856;20.290;2023-03-26T12:27:05;97761.20;;;12.55;52.15
34235;BME280;20500;49.856;20.290;2023-03-26T12:30:25;97755.46;;;12.50;52.09
34235;BME280;20500;49.856;20.290;2023-03-26T12:33:32;97755.17;;;12.54;52.10
34235;BME280;20500;49.856;20.290;2023-03-26T12:36:38;97749.81;;;12.77;52.34
34235;BME280;20500;49.856;20.290;2023-03-26T12:39:43;97747.33;;;13.07;52.26
34235;BME280;20500;49.856;20.290;2023-03-26T12:43:22;97750.98;;;13.21;51.95
34235;BME280;20500;49.856;20.290;2023-03-26T12:46:51;97747.90;;;13.19;51.81
34235;BME280;20500;49.856;20.290;2023-03-26T12:50:39;97735.13;;;13.13;51.70
34235;BME280;20500;49.856;20.290;2023-03-26T12:54:05;97733.05;;;13.05;51.71
34235;BME280;20500;49.856;20.290;2023-03-26T12:57:22;97730.16;;;12.94;51.53
34235;BME280;20500;49.856;20.290;2023-03-26T13:00:46;97730.23;;;12.85;51.46
34235;BME280;20500;49.856;20.290;2023-03-26T13:04:14;97721.29;;;12.78;51.45
34235;BME280;20500;49.856;20.290;2023-03-26T13:07:35;97714.80;;;12.86;51.56
34235;BME280;20500;49.856;20.290;2023-03-26T13:10:50;97707.52;;;12.97;51.46
34235;BME280;20500;49.856;20.290;2023-03-26T13:14:06;97713.80;;;12.98;51.39
34235;BME280;20500;49.856;20.290;2023-03-26T13:17:24;97714.23;;;12.98;51.29
34235;BME280;20500;49.856;20.290;2023-03-26T13:20:39;97708.95;;;12.95;51.19
34235;BME280;20500;49.856;20.290;2023-03-26T13:23:54;97707.23;;;12.92;51.22
34235;BME280;20500;49.856;20.290;2023-03-26T13:27:14;97700.30;;;12.92;51.00
34235;BME280;20500;49.856;20.290;2023-03-26T13:30:30;97698.94;;;12.94;51.12
34235;BME280;20500;49.856;20.290;2023-03-26T13:33:48;97694.30;;;12.95;50.92
34235;BME280;20500;49.856;20.290;2023-03-26T13:37:04;97690.10;;;12.95;50.99
34235;BME280;20500;49.856;20.290;2023-03-26T13:40:24;97686.62;;;12.97;50.97
34235;BME280;20500;49.856;20.290;2023-03-26T13:43:39;97683.17;;;13.12;50.98
34235;BME280;20500;49.856;20.290;2023-03-26T13:46:50;97676.63;;;13.36;50.92
34235;BME280;20500;49.856;20.290;2023-03-26T13:50:00;97660.66;;;13.64;50.86
34235;BME280;20500;49.856;20.290;2023-03-26T13:53:13;97660.11;;;13.76;50.52
34235;BME280;20500;49.856;20.290;2023-03-26T13:56:26;97654.70;;;13.78;50.34
34235;BME280;20500;49.856;20.290;2023-03-26T13:59:39;97645.21;;;13.83;50.42
34235;BME280;20500;49.856;20.290;2023-03-26T14:02:52;97644.13;;;13.92;50.37
34235;BME280;20500;49.856;20.290;2023-03-26T14:06:05;97642.13;;;13.90;50.18
34235;BME280;20500;49.856;20.290;2023-03-26T14:09:17;97640.59;;;13.87;50.11
34235;BME280;20500;49.856;20.290;2023-03-26T14:12:35;97640.27;;;13.90;50.08
34235;BME280;20500;49.856;20.290;2023-03-26T14:15:49;97638.11;;;13.96;50.03
34235;BME280;20500;49.856;20.290;2023-03-26T14:19:00;97637.83;;;14.00;49.90
34235;BME280;20500;49.856;20.290;2023-03-26T14:22:14;97632.55;;;13.99;49.66
34235;BME280;20500;49.856;20.290;2023-03-26T14:25:36;97636.77;;;13.92;49.51
34235;BME280;20500;49.856;20.290;2023-03-26T14:29:12;97634.45;;;13.82;49.26
34235;BME280;20500;49.856;20.290;2023-03-26T14:32:34;97635.27;;;13.68;49.23
34235;BME280;20500;49.856;20.290;2023-03-26T14:35:51;97631.81;;;13.58;49.32
34235;BME280;20500;49.856;20.290;2023-03-26T14:39:25;97633.47;;;13.59;49.37
34235;BME280;20500;49.856;20.290;2023-03-26T14:42:40;97631.19;;;13.60;49.19
34235;BME280;20500;49.856;20.290;2023-03-26T14:46:07;97633.25;;;13.55;48.90
34235;BME280;20500;49.856;20.290;2023-03-26T14:49:31;97632.20;;;13.48;48.90
34235;BME280;20500;49.856;20.290;2023-03-26T14:52:47;97631.26;;;13.41;48.92
34235;BME280;20500;49.856;20.290;2023-03-26T14:56:20;97628.73;;;13.38;48.81
34235;BME280;20500;49.856;20.290;2023-03-26T15:07:42;97634.29;;;13.42;48.84
34235;BME280;20500;49.856;20.290;2023-03-26T15:11:14;97632.07;;;13.37;48.64
34235;BME280;20500;49.856;20.290;2023-03-26T15:14:47;97629.05;;;13.32;48.50
34235;BME280;20500;49.856;20.290;2023-03-26T15:18:27;97626.65;;;13.29;48.67
34235;BME280;20500;49.856;20.290;2023-03-26T15:21:59;97619.36;;;13.26;48.52
34235;BME280;20500;49.856;20.290;2023-03-26T15:25:53;97619.29;;;13.25;48.46
34235;BME280;20500;49.856;20.290;2023-03-26T15:29:27;97620.41;;;13.23;48.40
34235;BME280;20500;49.856;20.290;2023-03-26T15:32:52;97618.80;;;13.22;48.39
34235;BME280;20500;49.856;20.290;2023-03-26T15:43:20;97601.63;;;13.20;48.41
34235;BME280;20500;49.856;20.290;2023-03-26T15:46:33;97600.62;;;13.14;48.46
34235;BME280;20500;49.856;20.290;2023-03-26T15:49:56;97595.08;;;13.09;48.58
34235;BME280;20500;49.856;20.290;2023-03-26T15:53:16;97591.38;;;13.06;48.58
34235;BME280;20500;49.856;20.290;2023-03-26T15:56:42;97598.10;;;13.01;48.67
34235;BME280;20500;49.856;20.290;2023-03-26T16:00:05;97596.69;;;12.95;48.68
34235;BME280;20500;49.856;20.290;2023-03-26T16:03:26;97595.73;;;12.90;48.73
34235;BME280;20500;49.856;20.290;2023-03-26T16:06:38;97593.07;;;12.86;48.70
34235;BME280;20500;49.856;20.290;2023-03-26T16:10:11;97587.64;;;12.84;48.65
34235;BME280;20500;49.856;20.290;2023-03-26T16:13:32;97589.00;;;12.80;48.65
34235;BME280;20500;49.856;20.290;2023-03-26T16:16:54;97581.63;;;12.75;48.78
34235;BME280;20500;49.856;20.290;2023-03-26T16:20:19;97577.59;;;12.73;48.83
34235;BME280;20500;49.856;20.290;2023-03-26T16:23:53;97576.20;;;12.70;48.92
34235;BME280;20500;49.856;20.290;2023-03-26T16:27:06;97576.24;;;12.67;48.96
34235;BME280;20500;49.856;20.290;2023-03-26T16:30:31;97577.70;;;12.63;49.01
34235;BME280;20500;49.856;20.290;2023-03-26T16:33:43;97577.20;;;12.56;48.99
34235;BME280;20500;49.856;20.290;2023-03-26T16:36:50;97575.80;;;12.45;49.03
34235;BME280;20500;49.856;20.290;2023-03-26T16:43:51;97572.67;;;12.21;49.03
34235;BME280;20500;49.856;20.290;2023-03-26T16:47:08;97572.34;;;12.04;48.97
34235;BME280;20500;49.856;20.290;2023-03-26T16:50:23;97576.71;;;11.89;49.10
34235;BME280;20500;49.856;20.290;2023-03-26T16:53:39;97576.50;;;11.76;49.05
34235;BME280;20500;49.856;20.290;2023-03-26T16:56:52;97577.30;;;11.63;49.02
34235;BME280;20500;49.856;20.290;2023-03-26T17:00:29;97578.25;;;11.50;48.95
34235;BME280;20500;49.856;20.290;2023-03-26T17:03:48;97578.86;;;11.35;48.88
34235;BME280;20500;49.856;20.290;2023-03-26T17:07:09;97577.14;;;11.20;48.94
34235;BME280;20500;49.856;20.290;2023-03-26T17:10:24;97579.39;;;11.08;49.13
34235;BME280;20500;49.856;20.290;2023-03-26T17:13:43;97577.10;;;10.93;49.37
34235;BME280;20500;49.856;20.290;2023-03-26T17:17:06;97573.02;;;10.77;49.30
34235;BME280;20500;49.856;20.290;2023-03-26T17:20:22;97576.30;;;10.64;49.49
34235;BME280;20500;49.856;20.290;2023-03-26T17:23:45;97575.45;;;10.48;49.71
34235;BME280;20500;49.856;20.290;2023-03-26T17:27:02;97572.61;;;10.29;49.92
34235;BME280;20500;49.856;20.290;2023-03-26T17:30:32;97568.97;;;10.13;50.00
34235;BME280;20500;49.856;20.290;2023-03-26T17:33:46;97573.92;;;9.98;50.22